createdAt,value
2022-10-19T00:01:57.915Z,100.00
2022-10-19T00:04:24.372Z,100.00
2022-10-19T00:06:50.753Z,100.00
2022-10-19T00:09:18.211Z,100.00
2022-10-19T00:11:46.432Z,100.00
2022-10-19T00:14:14.355Z,100.00
2022-10-19T00:16:40.881Z,100.00
2022-10-19T00:19:09.104Z,100.00
2022-10-19T00:21:35.968Z,100.00
2022-10-19T00:24:02.327Z,100.00
2022-10-19T00:26:28.779Z,100.00
2022-10-19T00:28:55.846Z,100.00
2022-10-19T00:31:22.469Z,100.00
2022-10-19T00:33:48.820Z,100.00
2022-10-19T00:36:15.146Z,100.00
2022-10-19T00:38:41.919Z,100.00
2022-10-19T00:41:08.355Z,100.00
2022-10-19T00:43:53.820Z,100.00
2022-10-19T00:46:20.307Z,100.00
2022-10-19T00:48:46.761Z,100.00
2022-10-19T00:51:13.754Z,100.00
2022-10-19T00:53:40.936Z,100.00
2022-10-19T00:56:09.693Z,100.00
2022-10-19T00:58:36.064Z,100.00
2022-10-19T01:01:04.221Z,100.00
2022-10-19T01:03:30.665Z,100.00
2022-10-19T01:05:57.062Z,100.00
2022-10-19T01:08:23.668Z,100.00
2022-10-19T01:11:02.046Z,100.00
2022-10-19T01:14:05.042Z,100.00
2022-10-19T01:16:46.491Z,100.00
2022-10-19T01:19:15.703Z,100.00
2022-10-19T01:21:47.981Z,100.00
2022-10-19T01:24:17.984Z,100.00
2022-10-19T01:27:10.104Z,100.00
2022-10-19T01:29:39.174Z,100.00
2022-10-19T01:32:11.369Z,100.00
2022-10-19T01:34:49.769Z,100.00
2022-10-19T01:37:19.586Z,100.00
2022-10-19T01:39:54.670Z,100.00
2022-10-19T01:42:40.689Z,100.00
2022-10-19T01:45:27.366Z,100.00
2022-10-19T01:48:06.252Z,100.00
2022-10-19T01:50:47.855Z,100.00
2022-10-19T01:53:15.731Z,100.00
2022-10-19T01:55:44.570Z,100.00
2022-10-19T01:58:13.530Z,100.00
2022-10-19T02:00:42.270Z,100.00
2022-10-19T02:03:10.137Z,100.00
2022-10-19T02:05:38.086Z,100.00
2022-10-19T02:08:08.253Z,100.00
2022-10-19T02:10:37.575Z,100.00
2022-10-19T02:13:04.339Z,100.00
2022-10-19T02:15:31.792Z,100.00
2022-10-19T02:17:59.702Z,100.00
2022-10-19T02:20:27.244Z,100.00
2022-10-19T02:22:53.667Z,100.00
2022-10-19T02:25:20.348Z,100.00
2022-10-19T02:27:46.736Z,100.00
2022-10-19T02:30:14.461Z,100.00
2022-10-19T02:32:41.161Z,100.00
2022-10-19T02:35:07.880Z,100.00
2022-10-19T02:40:06.103Z,100.00
2022-10-19T02:42:34.587Z,100.00
2022-10-19T02:45:19.628Z,100.00
2022-10-19T02:48:06.227Z,100.00
2022-10-19T02:50:32.885Z,100.00
2022-10-19T02:52:59.627Z,100.00
2022-10-19T02:55:26.139Z,100.00
2022-10-19T02:57:53.725Z,100.00
2022-10-19T03:00:20.222Z,100.00
2022-10-19T03:02:46.675Z,100.00
2022-10-19T03:05:13.067Z,100.00
2022-10-19T03:07:39.422Z,100.00
2022-10-19T03:10:05.964Z,100.00
2022-10-19T03:12:32.287Z,100.00
2022-10-19T03:14:58.636Z,100.00
2022-10-19T03:17:25.012Z,100.00
2022-10-19T03:19:51.407Z,100.00
2022-10-19T03:22:17.801Z,100.00
2022-10-19T03:24:51.623Z,100.00
2022-10-19T03:27:17.964Z,100.00
2022-10-19T03:29:44.306Z,100.00
2022-10-19T03:32:10.716Z,100.00
2022-10-19T03:34:37.055Z,100.00
2022-10-19T03:37:03.444Z,100.00
2022-10-19T03:39:29.859Z,100.00
2022-10-19T03:41:56.189Z,100.00
2022-10-19T03:44:22.543Z,100.00
2022-10-19T03:46:48.887Z,100.00
2022-10-19T03:49:15.253Z,100.00
2022-10-19T03:51:41.874Z,100.00
2022-10-19T03:54:11.431Z,100.00
2022-10-19T03:56:37.932Z,100.00
2022-10-19T03:59:05.181Z,100.00
2022-10-19T04:01:33.389Z,100.00
2022-10-19T04:04:01.284Z,100.00
2022-10-19T04:06:29.237Z,100.00
2022-10-19T04:08:55.728Z,100.00
2022-10-19T04:11:23.708Z,100.00
2022-10-19T04:13:53.804Z,100.00
2022-10-19T04:16:20.927Z,100.00
2022-10-19T04:18:47.576Z,100.00
2022-10-19T04:21:20.036Z,100.00
2022-10-19T04:23:46.460Z,100.00
2022-10-19T04:26:12.792Z,100.00
2022-10-19T04:28:39.191Z,100.00
2022-10-19T04:31:06.529Z,100.00
2022-10-19T04:33:33.259Z,100.00
2022-10-19T04:36:00.234Z,100.00
2022-10-19T04:38:26.800Z,100.00
2022-10-19T04:40:53.148Z,100.00
2022-10-19T04:43:19.491Z,100.00
2022-10-19T04:45:45.844Z,100.00
2022-10-19T04:48:15.006Z,100.00
2022-10-19T04:50:42.566Z,100.00
2022-10-19T04:53:19.527Z,100.00
2022-10-19T04:55:45.977Z,100.00
2022-10-19T04:58:12.395Z,100.00
2022-10-19T05:00:39.150Z,100.00
2022-10-19T05:03:05.591Z,100.00
2022-10-19T05:05:32.518Z,100.00
2022-10-19T05:07:58.931Z,100.00
2022-10-19T05:10:25.377Z,100.00
2022-10-19T05:12:51.723Z,100.00
2022-10-19T05:15:18.052Z,100.00
2022-10-19T05:17:44.421Z,100.00
2022-10-19T05:20:13.792Z,100.00
2022-10-19T05:22:40.239Z,100.00
2022-10-19T05:25:07.372Z,100.00
2022-10-19T05:27:34.157Z,100.00
2022-10-19T05:30:00.676Z,100.00
2022-10-19T05:32:27.834Z,100.00
2022-10-19T05:34:54.182Z,100.00
2022-10-19T05:37:21.568Z,100.00
2022-10-19T05:39:47.994Z,100.00
2022-10-19T05:42:14.352Z,100.00
2022-10-19T05:44:40.816Z,100.00
2022-10-19T05:47:07.378Z,100.00
2022-10-19T05:49:33.740Z,100.00
2022-10-19T05:52:00.133Z,100.00
2022-10-19T05:54:28.445Z,100.00
2022-10-19T05:56:55.303Z,100.00
2022-10-19T05:59:21.848Z,100.00
2022-10-19T06:01:48.510Z,100.00
2022-10-19T06:06:42.614Z,100.00
2022-10-19T06:09:09.849Z,100.00
2022-10-19T06:11:39.031Z,100.00
2022-10-19T06:14:07.216Z,100.00
2022-10-19T06:16:33.682Z,100.00
2022-10-19T06:19:00.554Z,100.00
2022-10-19T06:21:28.187Z,100.00
2022-10-19T06:23:59.343Z,100.00
2022-10-19T06:26:26.290Z,100.00
2022-10-19T06:28:54.802Z,100.00
2022-10-19T06:31:21.400Z,100.00
2022-10-19T06:33:49.441Z,100.00
2022-10-19T06:36:17.931Z,100.00
2022-10-19T06:38:44.551Z,100.00
2022-10-19T06:41:11.615Z,100.00
2022-10-19T06:43:38.181Z,100.00
2022-10-19T06:46:05.895Z,100.00
2022-10-19T06:48:32.369Z,100.00
2022-10-19T06:50:59.584Z,100.00
2022-10-19T06:53:27.055Z,100.00
2022-10-19T06:55:53.409Z,100.00
2022-10-19T06:58:19.859Z,100.00
2022-10-19T07:00:46.361Z,100.00
2022-10-19T07:03:12.850Z,100.00
2022-10-19T07:05:39.273Z,100.00
2022-10-19T07:08:05.775Z,100.00
2022-10-19T07:10:32.165Z,100.00
2022-10-19T07:12:58.608Z,100.00
2022-10-19T07:15:25.200Z,100.00
2022-10-19T07:17:52.580Z,100.00
2022-10-19T07:20:18.958Z,100.00
2022-10-19T07:22:45.402Z,100.00
2022-10-19T07:25:11.925Z,100.00
2022-10-19T07:27:40.278Z,100.00
2022-10-19T07:30:07.325Z,100.00
2022-10-19T07:32:33.701Z,100.00
2022-10-19T07:35:00.138Z,100.00
2022-10-19T07:37:26.562Z,100.00
2022-10-19T07:39:52.915Z,100.00
2022-10-19T07:42:19.386Z,100.00
2022-10-19T07:44:45.781Z,100.00
2022-10-19T07:47:12.207Z,100.00
2022-10-19T07:49:38.718Z,100.00
2022-10-19T07:52:05.416Z,100.00
2022-10-19T07:54:32.003Z,100.00
2022-10-19T07:56:58.515Z,100.00
2022-10-19T07:59:25.000Z,100.00
2022-10-19T08:01:52.912Z,100.00
2022-10-19T08:07:05.707Z,100.00
2022-10-19T08:12:18.652Z,100.00
2022-10-19T08:14:45.055Z,100.00
2022-10-19T08:17:11.957Z,100.00
2022-10-19T08:19:43.074Z,100.00
2022-10-19T08:22:10.155Z,100.00
2022-10-19T08:24:36.545Z,100.00
2022-10-19T08:27:02.971Z,100.00
2022-10-19T08:29:31.507Z,100.00
2022-10-19T08:31:58.943Z,100.00
2022-10-19T08:34:25.434Z,100.00
2022-10-19T08:36:51.783Z,100.00
2022-10-19T08:39:18.224Z,100.00
2022-10-19T08:42:05.160Z,100.00
2022-10-19T08:44:34.398Z,100.00
2022-10-19T08:47:23.236Z,100.00
2022-10-19T08:49:50.113Z,95.55
2022-10-19T08:52:19.216Z,94.51
2022-10-19T08:55:06.068Z,96.39
2022-10-19T08:57:33.327Z,95.19
2022-10-19T09:00:06.180Z,94.98
2022-10-19T09:02:33.078Z,92.43
2022-10-19T09:05:03.314Z,92.37
2022-10-19T09:07:33.039Z,91.53
2022-10-19T09:10:01.230Z,89.28
2022-10-19T09:12:53.857Z,88.88
2022-10-19T09:15:26.338Z,86.90
2022-10-19T09:17:52.762Z,87.21
2022-10-19T09:20:24.619Z,88.75
2022-10-19T09:22:56.180Z,87.51
2022-10-19T09:25:23.259Z,87.74
2022-10-19T09:30:30.421Z,85.85
2022-10-19T09:33:00.854Z,86.51
2022-10-19T09:35:27.558Z,84.03
2022-10-19T09:37:54.647Z,83.72
2022-10-19T09:40:23.268Z,84.86
2022-10-19T09:42:57.270Z,83.01
2022-10-19T09:45:26.649Z,84.00
2022-10-19T09:47:53.168Z,83.76
2022-10-19T09:50:26.467Z,81.65
2022-10-19T09:52:55.229Z,80.40
2022-10-19T09:55:37.786Z,81.43
2022-10-19T09:58:13.630Z,82.44
2022-10-19T10:00:50.668Z,81.52
2022-10-19T10:03:22.936Z,80.66
2022-10-19T10:05:49.604Z,83.63
2022-10-19T10:08:18.048Z,85.96
2022-10-19T10:10:53.135Z,85.24
2022-10-19T10:13:21.108Z,84.07
2022-10-19T10:15:48.967Z,79.31
2022-10-19T10:18:16.396Z,79.91
2022-10-19T10:21:01.641Z,81.24
2022-10-19T10:23:31.096Z,84.09
2022-10-19T10:25:58.894Z,81.99
2022-10-19T10:28:26.495Z,84.51
2022-10-19T10:30:54.794Z,83.83
2022-10-19T10:33:43.860Z,83.58
2022-10-19T10:36:12.212Z,80.72
2022-10-19T10:38:45.001Z,77.83
2022-10-19T10:41:14.299Z,78.97
2022-10-19T10:46:21.139Z,79.12
2022-10-19T10:48:56.474Z,81.82
2022-10-19T10:51:39.373Z,81.52
2022-10-19T10:54:26.082Z,82.17
2022-10-19T10:57:09.304Z,82.78
2022-10-19T10:59:44.759Z,78.59
2022-10-19T11:05:19.316Z,81.67
2022-10-19T11:07:47.406Z,80.99
2022-10-19T11:10:20.136Z,80.15
2022-10-19T11:12:49.316Z,79.45
2022-10-19T11:15:27.707Z,80.83
2022-10-19T11:17:57.566Z,76.21
2022-10-19T11:20:27.436Z,73.10
2022-10-19T11:23:12.531Z,74.05
2022-10-19T11:26:17.365Z,72.90
2022-10-19T11:29:13.116Z,70.03
2022-10-19T11:31:45.764Z,65.92
2022-10-19T11:34:12.114Z,66.62
2022-10-19T11:36:46.322Z,67.24
2022-10-19T11:39:38.754Z,68.17
2022-10-19T11:42:34.558Z,64.90
2022-10-19T11:45:09.900Z,64.58
2022-10-19T11:47:51.982Z,65.14
2022-10-19T11:50:27.115Z,64.95
2022-10-19T11:52:59.077Z,64.19
2022-10-19T11:55:36.010Z,64.13
2022-10-19T11:58:24.144Z,64.82
2022-10-19T12:00:56.951Z,63.60
2022-10-19T12:03:36.518Z,64.78
2022-10-19T12:06:08.061Z,65.67
2022-10-19T12:08:37.491Z,65.61
2022-10-19T12:11:03.917Z,63.38
2022-10-19T12:13:37.306Z,63.49
2022-10-19T12:16:04.151Z,63.08
2022-10-19T12:18:36.413Z,64.83
2022-10-19T12:21:04.542Z,64.70
2022-10-19T12:23:41.508Z,64.78
2022-10-19T12:26:09.934Z,61.25
2022-10-19T12:28:38.065Z,64.55
2022-10-19T12:31:05.369Z,63.50
2022-10-19T12:33:42.386Z,65.38
2022-10-19T12:36:27.160Z,61.48
2022-10-19T12:39:00.860Z,62.27
2022-10-19T12:41:44.838Z,62.12
2022-10-19T12:44:29.582Z,63.18
2022-10-19T12:47:00.854Z,63.62
2022-10-19T12:49:30.479Z,64.21
2022-10-19T12:51:57.592Z,62.34
2022-10-19T12:54:28.157Z,61.07
2022-10-19T12:56:55.669Z,61.03
2022-10-19T12:59:25.134Z,59.21
2022-10-19T13:01:52.343Z,59.69
2022-10-19T13:04:24.045Z,60.38
2022-10-19T13:07:10.838Z,61.31
2022-10-19T13:09:39.310Z,61.69
2022-10-19T13:12:11.696Z,61.08
2022-10-19T13:14:50.274Z,58.97
2022-10-19T13:17:38.051Z,58.15
2022-10-19T13:20:13.827Z,59.30
2022-10-19T13:22:48.850Z,60.29
2022-10-19T13:25:27.820Z,59.09
2022-10-19T13:28:01.144Z,58.92
2022-10-19T13:30:41.689Z,57.87
2022-10-19T13:33:29.572Z,57.00
2022-10-19T13:35:58.852Z,58.82
2022-10-19T13:38:29.366Z,56.65
2022-10-19T13:40:55.765Z,56.95
2022-10-19T13:43:26.882Z,57.77
2022-10-19T13:46:00.946Z,59.13
2022-10-19T13:48:36.056Z,59.51
2022-10-19T13:51:08.584Z,59.22
2022-10-19T13:53:34.911Z,58.65
2022-10-19T13:56:19.957Z,59.58
2022-10-19T13:58:46.315Z,58.61
2022-10-19T14:01:31.727Z,58.38
2022-10-19T14:04:16.734Z,59.85
2022-10-19T14:06:55.891Z,61.34
2022-10-19T14:09:29.875Z,61.02
2022-10-19T14:12:06.367Z,61.20
2022-10-19T14:14:38.869Z,61.19
2022-10-19T14:17:13.778Z,61.67
2022-10-19T14:19:48.026Z,62.53
2022-10-19T14:22:20.576Z,61.87
2022-10-19T14:24:47.137Z,62.10
2022-10-19T14:27:17.614Z,62.11
2022-10-19T14:29:49.281Z,62.46
2022-10-19T14:32:17.202Z,62.57
2022-10-19T14:34:44.912Z,62.18
2022-10-19T14:37:16.485Z,62.69
2022-10-19T14:39:42.926Z,62.63
2022-10-19T14:42:10.232Z,62.64
2022-10-19T14:44:43.681Z,61.77
2022-10-19T14:47:30.499Z,63.08
2022-10-19T14:49:56.930Z,63.13
2022-10-19T14:55:01.998Z,63.59
2022-10-19T14:57:32.440Z,64.13
2022-10-19T15:00:01.162Z,64.16
2022-10-19T15:02:27.512Z,63.59
2022-10-19T15:04:55.135Z,63.73
2022-10-19T15:07:26.681Z,62.90
2022-10-19T15:09:57.813Z,62.91
2022-10-19T15:12:29.532Z,62.69
2022-10-19T15:14:57.112Z,61.59
2022-10-19T15:17:30.782Z,61.37
2022-10-19T15:20:00.803Z,62.98
2022-10-19T15:22:30.552Z,62.15
2022-10-19T15:24:56.898Z,61.49
2022-10-19T15:27:29.849Z,61.98
2022-10-19T15:30:22.392Z,61.74
2022-10-19T15:32:57.718Z,62.20
2022-10-19T15:35:29.520Z,61.93
2022-10-19T15:38:00.204Z,61.08
2022-10-19T15:40:32.408Z,61.29
2022-10-19T15:42:58.900Z,61.86
2022-10-19T15:45:35.325Z,62.39
2022-10-19T15:48:10.631Z,62.75
2022-10-19T15:50:43.856Z,62.21
2022-10-19T15:53:10.447Z,62.19
2022-10-19T15:55:36.840Z,62.23
2022-10-19T15:58:03.199Z,62.83
2022-10-19T16:00:30.014Z,63.60
2022-10-19T16:02:56.401Z,64.22
2022-10-19T16:05:22.904Z,64.60
2022-10-19T16:07:49.428Z,65.02
2022-10-19T16:10:23.478Z,65.12
2022-10-19T16:12:50.200Z,65.59
2022-10-19T16:15:22.090Z,65.87
2022-10-19T16:17:59.003Z,66.45
2022-10-19T16:20:26.789Z,66.73
2022-10-19T16:22:53.554Z,67.16
2022-10-19T16:25:20.064Z,67.35
2022-10-19T16:27:46.520Z,67.95
2022-10-19T16:30:13.061Z,68.42
2022-10-19T16:35:12.137Z,69.36
2022-10-19T16:37:38.527Z,69.70
2022-10-19T16:40:05.217Z,69.90
2022-10-19T16:42:31.909Z,70.58
2022-10-19T16:44:58.522Z,70.97
2022-10-19T16:47:24.893Z,71.44
2022-10-19T16:50:01.120Z,71.77
2022-10-19T16:52:28.129Z,72.42
2022-10-19T16:54:54.614Z,72.72
2022-10-19T16:57:21.009Z,73.54
2022-10-19T16:59:49.534Z,74.28
2022-10-19T17:02:16.041Z,75.75
2022-10-19T17:04:42.484Z,77.18
2022-10-19T17:07:08.983Z,78.00
2022-10-19T17:09:43.337Z,78.99
2022-10-19T17:12:10.406Z,80.37
2022-10-19T17:14:38.522Z,80.78
2022-10-19T17:17:04.920Z,81.18
2022-10-19T17:19:31.597Z,81.71
2022-10-19T17:21:59.031Z,82.29
2022-10-19T17:24:25.406Z,82.60
2022-10-19T17:26:52.154Z,83.08
2022-10-19T17:29:19.155Z,82.59
2022-10-19T17:31:45.791Z,82.77
2022-10-19T17:34:12.220Z,82.60
2022-10-19T17:39:08.846Z,82.88
2022-10-19T17:41:35.791Z,82.76
2022-10-19T17:44:03.478Z,83.22
2022-10-19T17:46:31.082Z,82.99
2022-10-19T17:48:58.008Z,83.03
2022-10-19T17:51:29.159Z,83.10
2022-10-19T17:53:56.589Z,83.55
2022-10-19T17:56:23.324Z,83.61
2022-10-19T17:58:49.854Z,83.28
2022-10-19T18:01:17.495Z,83.18
2022-10-19T18:03:43.984Z,83.15
2022-10-19T18:06:18.294Z,83.36
2022-10-19T18:08:45.762Z,82.60
2022-10-19T18:11:14.436Z,82.68
2022-10-19T18:13:41.222Z,81.09
2022-10-19T18:16:12.368Z,81.07
2022-10-19T18:18:39.654Z,79.26
2022-10-19T18:21:07.122Z,79.03
2022-10-19T18:23:33.878Z,78.87
2022-10-19T18:26:00.963Z,78.16
2022-10-19T18:28:27.313Z,77.75
2022-10-19T18:30:53.675Z,76.70
2022-10-19T18:33:20.104Z,77.67
2022-10-19T18:35:46.510Z,77.94
2022-10-19T18:38:12.866Z,77.79
2022-10-19T18:40:39.226Z,78.50
2022-10-19T18:43:05.790Z,78.70
2022-10-19T18:45:32.745Z,77.98
2022-10-19T18:47:59.149Z,77.59
2022-10-19T18:50:25.542Z,78.34
2022-10-19T18:52:52.026Z,78.74
2022-10-19T18:55:18.477Z,78.65
2022-10-19T18:57:44.914Z,78.87
2022-10-19T19:00:11.673Z,78.86
2022-10-19T19:02:46.562Z,79.27
2022-10-19T19:05:13.492Z,80.18
2022-10-19T19:07:39.836Z,80.37
2022-10-19T19:10:06.500Z,79.99
2022-10-19T19:12:33.320Z,80.27
2022-10-19T19:14:59.987Z,79.92
2022-10-19T19:17:26.336Z,80.46
2022-10-19T19:19:52.799Z,80.67
2022-10-19T19:22:19.272Z,81.40
2022-10-19T19:24:45.690Z,81.69
2022-10-19T19:27:12.126Z,82.00
2022-10-19T19:29:38.570Z,81.67
2022-10-19T19:32:05.319Z,82.47
2022-10-19T19:34:31.736Z,82.72
2022-10-19T19:36:58.116Z,82.43
2022-10-19T19:39:24.468Z,83.22
2022-10-19T19:41:51.036Z,83.17
2022-10-19T19:44:17.778Z,83.70
2022-10-19T19:46:44.237Z,83.86
2022-10-19T19:49:11.019Z,83.93
2022-10-19T19:51:37.506Z,84.02
2022-10-19T19:54:04.337Z,83.83
2022-10-19T19:56:31.269Z,83.75
2022-10-19T19:58:58.671Z,83.21
2022-10-19T20:01:25.408Z,83.81
2022-10-19T20:03:51.970Z,84.43
2022-10-19T20:06:22.079Z,85.15
2022-10-19T20:08:51.771Z,84.49
2022-10-19T20:11:18.255Z,85.05
2022-10-19T20:13:45.579Z,85.45
2022-10-19T20:16:16.503Z,85.43
2022-10-19T20:18:47.414Z,85.20
2022-10-19T20:21:14.313Z,85.84
2022-10-19T20:23:40.742Z,85.74
2022-10-19T20:26:13.720Z,86.29
2022-10-19T20:28:40.083Z,87.38
2022-10-19T20:31:07.523Z,86.84
2022-10-19T20:33:34.894Z,87.21
2022-10-19T20:36:06.374Z,87.06
2022-10-19T20:38:37.003Z,87.54
2022-10-19T20:41:06.960Z,88.22
2022-10-19T20:43:35.186Z,87.63
2022-10-19T20:46:07.685Z,88.52
2022-10-19T20:48:34.087Z,88.25
2022-10-19T20:51:10.831Z,87.56
2022-10-19T20:53:37.378Z,88.00
2022-10-19T20:56:08.248Z,88.96
2022-10-19T20:58:35.242Z,89.75
2022-10-19T21:01:05.680Z,88.65
2022-10-19T21:03:32.043Z,90.22
2022-10-19T21:06:01.242Z,90.28
2022-10-19T21:08:27.712Z,90.37
2022-10-19T21:10:54.141Z,90.21
2022-10-19T21:13:20.546Z,89.37
2022-10-19T21:15:46.918Z,89.51
2022-10-19T21:18:13.309Z,88.71
2022-10-19T21:20:39.715Z,88.99
2022-10-19T21:23:06.090Z,89.87
2022-10-19T21:25:32.487Z,89.29
2022-10-19T21:27:58.896Z,89.48
2022-10-19T21:30:25.754Z,89.33
2022-10-19T21:32:52.126Z,90.01
2022-10-19T21:35:18.506Z,89.97
2022-10-19T21:37:44.954Z,90.87
2022-10-19T21:40:11.316Z,91.41
2022-10-19T21:42:37.712Z,91.30
2022-10-19T21:45:25.616Z,91.63
2022-10-19T21:47:50.689Z,91.36
2022-10-19T21:50:17.439Z,90.54
2022-10-19T21:52:43.859Z,90.86
2022-10-19T21:55:10.232Z,90.24
2022-10-19T21:57:36.905Z,90.46
2022-10-19T22:00:04.523Z,90.78
2022-10-19T22:02:39.313Z,91.28
2022-10-19T22:05:05.853Z,91.21
2022-10-19T22:08:01.132Z,91.09
2022-10-19T22:18:13.625Z,91.65
2022-10-19T22:20:40.265Z,91.55
2022-10-19T22:23:07.369Z,92.56
2022-10-19T22:25:34.636Z,93.62
2022-10-19T22:28:01.302Z,93.40
2022-10-19T22:30:27.805Z,93.00
2022-10-19T22:32:54.257Z,92.62
2022-10-19T22:35:20.637Z,92.75
2022-10-19T22:37:47.105Z,94.14
2022-10-19T22:40:13.735Z,94.00
2022-10-19T22:42:40.115Z,94.02
2022-10-19T22:45:06.819Z,93.90
2022-10-19T22:47:33.302Z,95.17
2022-10-19T22:49:59.713Z,94.94
2022-10-19T22:52:26.105Z,95.84
2022-10-19T22:54:52.630Z,95.85
2022-10-19T22:57:19.018Z,96.91
2022-10-19T22:59:45.453Z,96.38
2022-10-19T23:02:11.907Z,95.27
2022-10-19T23:04:38.296Z,96.94
2022-10-19T23:07:04.683Z,97.00
2022-10-19T23:09:31.114Z,97.74
2022-10-19T23:11:57.503Z,96.26
2022-10-19T23:14:23.877Z,96.66
2022-10-19T23:20:18.567Z,96.89
2022-10-19T23:22:44.907Z,97.20
2022-10-19T23:25:11.268Z,98.58
2022-10-19T23:27:37.851Z,98.15
2022-10-19T23:30:04.955Z,98.04
2022-10-19T23:32:31.368Z,96.94
2022-10-19T23:34:57.828Z,97.05
2022-10-19T23:37:24.229Z,97.01
2022-10-19T23:39:50.621Z,97.75
2022-10-19T23:42:17.027Z,97.68
2022-10-19T23:44:43.437Z,98.89
2022-10-19T23:47:09.775Z,99.40
2022-10-19T23:49:36.135Z,99.23
2022-10-19T23:52:02.754Z,98.92
2022-10-19T23:54:29.180Z,99.21
2022-10-19T23:56:55.529Z,99.68
2022-10-19T23:59:21.868Z,99.34
